createdAt,value
2019-05-20T00:00:54.575Z,23.73
2019-05-20T00:03:24.401Z,24.10
2019-05-20T00:05:57.169Z,24.60
2019-05-20T00:08:27.209Z,24.80
2019-05-20T00:10:57.304Z,24.57
2019-05-20T00:13:29.155Z,24.07
2019-05-20T00:15:59.230Z,24.53
2019-05-20T00:18:29.070Z,26.40
2019-05-20T00:20:59.056Z,25.47
2019-05-20T00:23:30.870Z,26.73
2019-05-20T00:26:00.688Z,25.33
2019-05-20T00:28:32.432Z,24.70
2019-05-20T00:31:03.934Z,28.53
2019-05-20T00:33:34.538Z,23.40
2019-05-20T00:36:05.334Z,26.80
2019-05-20T00:38:35.653Z,25.17
2019-05-20T00:41:07.084Z,28.13
2019-05-20T00:43:38.318Z,26.60
2019-05-20T00:46:08.061Z,25.97
2019-05-20T00:48:38.315Z,27.90
2019-05-20T00:51:08.272Z,28.73
2019-05-20T00:53:39.995Z,34.47
2019-05-20T00:56:14.555Z,29.53
2019-05-20T00:58:44.243Z,30.23
2019-05-20T01:01:15.021Z,31.10
2019-05-20T01:03:47.704Z,32.03
2019-05-20T01:06:17.837Z,32.40
2019-05-20T01:08:47.961Z,32.40
2019-05-20T01:11:18.232Z,31.63
2019-05-20T01:13:48.423Z,29.83
2019-05-20T01:16:19.805Z,29.07
2019-05-20T01:18:49.934Z,29.17
2019-05-20T01:21:20.769Z,32.63
2019-05-20T01:23:51.503Z,33.50
2019-05-20T01:26:22.457Z,32.50
2019-05-20T01:28:52.654Z,29.90
2019-05-20T01:31:22.777Z,33.40
2019-05-20T01:33:53.917Z,28.97
2019-05-20T01:36:24.198Z,31.77
2019-05-20T01:38:54.324Z,32.60
2019-05-20T01:41:24.487Z,35.63
2019-05-20T01:43:54.712Z,31.70
2019-05-20T01:46:25.908Z,34.53
2019-05-20T01:48:57.764Z,34.47
2019-05-20T01:51:28.240Z,33.73
2019-05-20T01:53:58.786Z,33.83
2019-05-20T01:56:33.584Z,36.00
2019-05-20T01:59:03.773Z,36.80
2019-05-20T02:01:34.368Z,33.80
2019-05-20T02:04:05.216Z,34.27
2019-05-20T02:06:37.679Z,35.93
2019-05-20T02:09:10.343Z,39.80
2019-05-20T02:11:42.470Z,37.87
2019-05-20T02:14:21.011Z,39.27
2019-05-20T02:17:02.685Z,40.57
2019-05-20T02:19:34.166Z,38.10
2019-05-20T02:22:05.828Z,37.20
2019-05-20T02:24:35.944Z,39.57
2019-05-20T02:27:08.125Z,38.70
2019-05-20T02:29:38.443Z,36.33
2019-05-20T02:32:09.063Z,41.20
2019-05-20T02:34:41.657Z,36.80
2019-05-20T02:37:12.322Z,38.20
2019-05-20T02:39:44.553Z,43.67
2019-05-20T02:42:15.135Z,39.37
2019-05-20T02:44:46.778Z,39.83
2019-05-20T02:47:17.062Z,39.60
2019-05-20T02:49:51.690Z,42.37
2019-05-20T02:52:22.257Z,38.87
2019-05-20T02:54:53.071Z,44.17
2019-05-20T02:57:23.575Z,41.17
2019-05-20T02:59:54.637Z,43.70
2019-05-20T03:02:25.452Z,42.57
2019-05-20T03:04:55.831Z,46.73
2019-05-20T03:07:27.942Z,44.40
2019-05-20T03:09:59.046Z,45.97
2019-05-20T03:12:29.325Z,45.90
2019-05-20T03:14:59.895Z,46.33
2019-05-20T03:17:30.374Z,42.83
2019-05-20T03:20:00.797Z,48.70
2019-05-20T03:22:33.808Z,48.57
2019-05-20T03:25:09.437Z,50.50
2019-05-20T03:27:40.473Z,52.60
2019-05-20T03:30:12.338Z,45.87
2019-05-20T03:32:42.735Z,46.83
2019-05-20T03:35:14.861Z,48.67
2019-05-20T03:37:47.250Z,37.93
2019-05-20T03:40:17.899Z,35.63
2019-05-20T03:42:48.252Z,39.03
2019-05-20T03:45:18.273Z,39.00
2019-05-20T03:47:49.008Z,33.67
2019-05-20T03:50:20.593Z,34.13
2019-05-20T03:52:50.894Z,31.93
2019-05-20T03:55:22.335Z,32.90
2019-05-20T03:57:53.756Z,37.70
2019-05-20T04:00:43.053Z,33.57
2019-05-20T04:03:14.107Z,34.13
2019-05-20T04:05:44.281Z,30.07
2019-05-20T04:08:14.533Z,31.57
2019-05-20T04:10:46.043Z,31.23
2019-05-20T04:13:18.841Z,30.47
2019-05-20T04:15:50.951Z,29.60
2019-05-20T04:18:21.166Z,30.27
2019-05-20T04:20:56.245Z,28.80
2019-05-20T04:23:26.528Z,27.57
2019-05-20T04:25:58.177Z,26.97
2019-05-20T04:28:28.201Z,26.67
2019-05-20T04:30:58.327Z,26.50
2019-05-20T04:33:28.952Z,27.10
2019-05-20T04:35:59.332Z,26.17
2019-05-20T04:38:29.541Z,26.30
2019-05-20T04:41:00.696Z,25.73
2019-05-20T04:43:31.073Z,25.77
2019-05-20T04:46:02.108Z,24.73
2019-05-20T04:48:35.133Z,26.73
2019-05-20T04:51:06.749Z,24.60
2019-05-20T04:53:38.823Z,25.47
2019-05-20T04:56:09.352Z,24.17
2019-05-20T04:58:40.891Z,24.37
2019-05-20T05:01:11.479Z,23.77
2019-05-20T05:03:43.211Z,23.53
2019-05-20T05:06:14.322Z,22.33
2019-05-20T05:08:44.507Z,22.30
2019-05-20T05:11:15.331Z,23.83
2019-05-20T05:13:47.255Z,23.60
2019-05-20T05:16:17.475Z,23.33
2019-05-20T05:18:47.789Z,23.57
2019-05-20T05:21:20.891Z,24.53
2019-05-20T05:23:59.233Z,23.27
2019-05-20T05:26:22.706Z,23.57
2019-05-20T05:28:56.005Z,24.00
2019-05-20T05:31:26.066Z,24.30
2019-05-20T05:33:57.267Z,25.37
2019-05-20T05:36:27.077Z,24.23
2019-05-20T05:38:57.653Z,25.60
2019-05-20T05:41:28.281Z,29.77
2019-05-20T05:43:58.918Z,25.00
2019-05-20T05:46:29.237Z,26.40
2019-05-20T05:49:00.617Z,24.87
2019-05-20T05:51:30.703Z,26.10
2019-05-20T05:54:00.825Z,27.00
2019-05-20T05:56:30.907Z,26.67
2019-05-20T05:59:00.761Z,28.10
2019-05-20T06:01:30.679Z,26.83
2019-05-20T06:04:01.971Z,27.53
2019-05-20T06:06:33.106Z,28.80
2019-05-20T06:09:04.311Z,27.13
2019-05-20T06:11:34.196Z,26.87
2019-05-20T06:14:03.927Z,26.90
2019-05-20T06:16:36.830Z,27.40
2019-05-20T06:19:07.473Z,26.67
2019-05-20T06:21:37.146Z,28.43
2019-05-20T06:24:08.397Z,27.87
2019-05-20T06:26:38.842Z,28.20
2019-05-20T06:29:09.112Z,27.90
2019-05-20T06:31:40.797Z,30.70
2019-05-20T06:34:30.069Z,29.90
2019-05-20T06:37:02.051Z,28.50
2019-05-20T06:39:31.881Z,29.07
2019-05-20T06:42:01.787Z,27.87
2019-05-20T06:44:31.504Z,28.00
2019-05-20T06:47:01.531Z,26.80
2019-05-20T06:49:31.710Z,28.73
2019-05-20T06:52:01.711Z,28.60
2019-05-20T06:54:31.491Z,29.80
2019-05-20T06:57:02.054Z,28.07
2019-05-20T06:59:31.680Z,29.00
2019-05-20T07:02:02.016Z,28.87
2019-05-20T07:04:32.056Z,29.10
2019-05-20T07:07:02.185Z,29.67
2019-05-20T07:09:33.315Z,30.23
2019-05-20T07:12:04.856Z,30.40
2019-05-20T07:14:34.816Z,32.23
2019-05-20T07:17:04.979Z,31.67
2019-05-20T07:19:34.613Z,31.30
2019-05-20T07:22:04.983Z,30.43
2019-05-20T07:24:34.589Z,34.57
2019-05-20T07:27:04.694Z,32.10
2019-05-20T07:29:34.743Z,35.13
2019-05-20T07:32:04.664Z,36.97
2019-05-20T07:34:35.237Z,36.70
2019-05-20T07:37:05.359Z,38.50
2019-05-20T07:39:36.833Z,39.80
2019-05-20T07:42:06.825Z,42.53
2019-05-20T07:44:37.160Z,37.13
2019-05-20T07:47:10.516Z,37.77
2019-05-20T07:49:39.387Z,44.43
2019-05-20T07:52:09.622Z,41.07
2019-05-20T07:54:39.467Z,43.07
2019-05-20T07:57:12.005Z,43.97
2019-05-20T07:59:43.285Z,41.07
2019-05-20T08:02:14.365Z,41.10
2019-05-20T08:04:45.189Z,45.63
2019-05-20T08:07:27.255Z,47.33
2019-05-20T08:09:46.718Z,47.47
2019-05-20T08:12:16.604Z,48.40
2019-05-20T08:14:46.391Z,48.57
2019-05-20T08:17:17.911Z,45.80
2019-05-20T08:19:47.694Z,47.17
2019-05-20T08:22:17.355Z,55.30
2019-05-20T08:24:47.158Z,49.70
2019-05-20T08:27:17.733Z,46.97
2019-05-20T08:29:47.398Z,50.43
2019-05-20T08:32:18.117Z,49.57
2019-05-20T08:34:47.901Z,48.33
2019-05-20T08:37:17.912Z,53.53
2019-05-20T08:39:48.065Z,53.73
2019-05-20T08:42:19.357Z,56.07
2019-05-20T08:44:49.162Z,51.77
2019-05-20T08:47:18.790Z,49.87
2019-05-20T08:49:48.668Z,54.03
2019-05-20T08:52:19.002Z,51.57
2019-05-20T08:54:48.969Z,54.67
2019-05-20T08:57:18.795Z,50.93
2019-05-20T08:59:49.357Z,54.87
2019-05-20T09:02:19.119Z,52.27
2019-05-20T09:04:49.044Z,48.97
2019-05-20T09:07:19.098Z,52.13
2019-05-20T09:09:49.561Z,51.97
2019-05-20T09:12:19.439Z,55.27
2019-05-20T09:14:49.192Z,53.93
2019-05-20T09:17:19.007Z,50.60
2019-05-20T09:19:49.357Z,54.40
2019-05-20T09:22:19.241Z,53.33
2019-05-20T09:24:49.427Z,53.40
2019-05-20T09:27:19.557Z,53.57
2019-05-20T09:29:49.232Z,51.47
2019-05-20T09:32:19.077Z,54.43
2019-05-20T09:34:49.778Z,50.17
2019-05-20T09:37:19.830Z,55.17
2019-05-20T09:39:51.020Z,53.30
2019-05-20T09:42:20.784Z,49.20
2019-05-20T09:44:50.462Z,50.33
2019-05-20T09:47:20.204Z,50.77
2019-05-20T09:49:49.846Z,56.07
2019-05-20T09:52:19.635Z,57.30
2019-05-20T09:54:49.259Z,55.03
2019-05-20T09:57:19.646Z,51.47
2019-05-20T09:59:49.556Z,52.67
2019-05-20T10:02:19.363Z,50.03
2019-05-20T10:04:49.039Z,54.80
2019-05-20T10:07:19.215Z,56.60
2019-05-20T10:09:48.942Z,53.97
2019-05-20T10:12:18.726Z,52.77
2019-05-20T10:14:48.413Z,51.87
2019-05-20T10:17:21.240Z,49.93
2019-05-20T10:19:51.015Z,50.93
2019-05-20T10:22:20.677Z,46.00
2019-05-20T10:24:50.564Z,45.10
2019-05-20T10:27:20.394Z,47.50
2019-05-20T10:29:50.425Z,46.73
2019-05-20T10:32:20.379Z,43.70
2019-05-20T10:34:50.376Z,44.40
2019-05-20T10:37:20.635Z,48.17
2019-05-20T10:39:50.373Z,48.53
2019-05-20T10:42:20.709Z,49.07
2019-05-20T10:44:50.364Z,47.93
2019-05-20T10:47:20.896Z,45.73
2019-05-20T10:49:50.853Z,46.20
2019-05-20T10:52:20.890Z,47.27
2019-05-20T10:54:51.070Z,49.10
2019-05-20T10:57:21.809Z,49.87
2019-05-20T10:59:53.092Z,49.53
2019-05-20T11:02:24.457Z,47.97
2019-05-20T11:04:54.510Z,50.40
2019-05-20T11:07:24.200Z,50.00
2019-05-20T11:09:54.252Z,54.47
2019-05-20T11:12:24.288Z,54.17
2019-05-20T11:14:54.181Z,50.60
2019-05-20T11:17:23.825Z,48.83
2019-05-20T11:19:53.563Z,51.73
2019-05-20T11:22:23.629Z,50.87
2019-05-20T11:24:54.458Z,50.00
2019-05-20T11:27:24.480Z,51.27
2019-05-20T11:29:54.358Z,53.77
2019-05-20T11:32:24.156Z,50.57
2019-05-20T11:34:53.965Z,51.73
2019-05-20T11:37:24.105Z,49.93
2019-05-20T11:39:53.809Z,47.73
2019-05-20T11:42:24.744Z,47.73
2019-05-20T11:44:54.495Z,46.53
2019-05-20T11:47:24.270Z,45.70
2019-05-20T11:49:54.004Z,47.33
2019-05-20T11:52:24.237Z,49.97
2019-05-20T11:54:54.699Z,49.60
2019-05-20T11:57:25.966Z,46.57
2019-05-20T11:59:55.769Z,46.53
2019-05-20T12:02:27.054Z,48.03
2019-05-20T12:04:58.449Z,47.83
2019-05-20T12:07:29.184Z,46.37
2019-05-20T12:10:00.450Z,43.93
2019-05-20T12:12:30.109Z,46.90
2019-05-20T12:15:03.254Z,49.63
2019-05-20T12:17:34.062Z,51.73
2019-05-20T12:20:11.925Z,50.83
2019-05-20T12:22:41.156Z,49.97
2019-05-20T12:25:11.481Z,48.30
2019-05-20T12:27:41.619Z,49.30
2019-05-20T12:30:12.702Z,48.20
2019-05-20T12:32:43.929Z,49.63
2019-05-20T12:35:14.432Z,50.10
2019-05-20T12:37:45.987Z,51.33
2019-05-20T12:40:16.388Z,47.27
2019-05-20T12:42:47.184Z,50.23
2019-05-20T12:45:17.291Z,48.53
2019-05-20T12:47:47.048Z,50.57
2019-05-20T12:50:17.632Z,50.60
2019-05-20T12:52:47.443Z,51.60
2019-05-20T12:55:19.147Z,50.93
2019-05-20T12:57:50.652Z,53.70
2019-05-20T13:00:21.272Z,53.20
2019-05-20T13:02:51.162Z,53.27
2019-05-20T13:05:20.903Z,49.47
2019-05-20T13:07:50.909Z,54.70
2019-05-20T13:10:31.742Z,49.97
2019-05-20T13:12:53.367Z,54.63
2019-05-20T13:15:23.206Z,54.17
2019-05-20T13:17:52.872Z,54.13
2019-05-20T13:20:23.980Z,53.87
2019-05-20T13:22:56.011Z,49.07
2019-05-20T13:25:25.982Z,50.23
2019-05-20T13:27:55.709Z,53.90
2019-05-20T13:30:26.749Z,53.20
2019-05-20T13:32:56.489Z,54.87
2019-05-20T13:35:28.154Z,52.07
2019-05-20T13:37:57.889Z,50.97
2019-05-20T13:40:43.065Z,53.30
2019-05-20T13:42:59.100Z,56.37
2019-05-20T13:45:28.850Z,53.93
2019-05-20T13:47:59.613Z,51.37
2019-05-20T13:50:31.071Z,54.23
2019-05-20T13:53:00.856Z,52.97
2019-05-20T13:55:31.715Z,51.10
2019-05-20T13:58:01.730Z,51.27
2019-05-20T14:00:32.953Z,55.97
2019-05-20T14:03:21.903Z,53.30
2019-05-20T14:05:53.094Z,52.93
2019-05-20T14:08:22.951Z,54.23
2019-05-20T14:11:03.752Z,52.03
2019-05-20T14:13:24.522Z,51.43
2019-05-20T14:15:54.531Z,51.47
2019-05-20T14:18:24.327Z,54.00
2019-05-20T14:20:54.063Z,52.83
2019-05-20T14:23:23.800Z,53.90
2019-05-20T14:25:53.535Z,54.77
2019-05-20T14:28:24.059Z,55.60
2019-05-20T14:30:53.855Z,53.60
2019-05-20T14:33:23.509Z,55.20
2019-05-20T14:35:53.237Z,55.80
2019-05-20T14:38:22.918Z,59.47
2019-05-20T14:40:53.166Z,56.90
2019-05-20T14:43:26.028Z,54.97
2019-05-20T14:45:55.912Z,55.40
2019-05-20T14:48:25.670Z,59.93
2019-05-20T14:50:56.073Z,56.43
2019-05-20T14:53:25.763Z,56.73
2019-05-20T14:55:55.403Z,56.03
2019-05-20T14:58:26.394Z,58.97
2019-05-20T15:00:56.180Z,54.63
2019-05-20T15:03:25.911Z,59.93
2019-05-20T15:05:55.698Z,61.87
2019-05-20T15:08:25.410Z,56.50
2019-05-20T15:10:55.056Z,55.00
2019-05-20T15:13:26.756Z,55.10
2019-05-20T15:15:58.246Z,55.30
2019-05-20T15:18:28.082Z,53.50
2019-05-20T15:20:57.896Z,56.97
2019-05-20T15:23:27.586Z,59.20
2019-05-20T15:25:57.288Z,55.43
2019-05-20T15:28:27.317Z,55.33
2019-05-20T15:30:57.155Z,53.53
2019-05-20T15:33:26.943Z,56.13
2019-05-20T15:35:56.766Z,54.87
2019-05-20T15:38:26.754Z,55.03
2019-05-20T15:40:56.562Z,56.97
2019-05-20T15:43:26.394Z,56.40
2019-05-20T15:45:56.356Z,49.80
2019-05-20T15:48:26.041Z,48.23
2019-05-20T15:50:55.867Z,47.63
2019-05-20T15:53:25.601Z,45.20
2019-05-20T15:55:55.342Z,48.63
2019-05-20T15:58:25.052Z,46.50
2019-05-20T16:00:56.144Z,47.47
2019-05-20T16:03:25.844Z,49.93
2019-05-20T16:05:59.719Z,49.00
2019-05-20T16:08:27.772Z,48.67
2019-05-20T16:10:57.598Z,49.37
2019-05-20T16:13:27.177Z,46.83
2019-05-20T16:15:56.896Z,47.53
2019-05-20T16:18:26.908Z,48.30
2019-05-20T16:20:56.748Z,49.53
2019-05-20T16:23:26.926Z,47.23
2019-05-20T16:25:56.847Z,48.33
2019-05-20T16:28:26.708Z,48.43
2019-05-20T16:30:56.440Z,49.47
2019-05-20T16:33:26.298Z,47.67
2019-05-20T16:35:56.037Z,49.87
2019-05-20T16:38:25.671Z,47.57
2019-05-20T16:40:56.375Z,48.63
2019-05-20T16:43:27.898Z,44.23
2019-05-20T16:45:57.637Z,50.50
2019-05-20T16:48:28.094Z,47.40
2019-05-20T16:50:57.857Z,49.47
2019-05-20T16:53:28.721Z,49.20
2019-05-20T16:55:58.471Z,47.80
2019-05-20T16:58:29.393Z,52.07
2019-05-20T17:01:00.241Z,51.30
2019-05-20T17:03:30.074Z,53.40
2019-05-20T17:06:01.283Z,53.23
2019-05-20T17:08:31.190Z,58.73
2019-05-20T17:11:01.107Z,60.90
2019-05-20T17:13:30.902Z,60.80
2019-05-20T17:16:01.299Z,61.43
2019-05-20T17:18:31.113Z,56.37
2019-05-20T17:21:01.012Z,63.93
2019-05-20T17:23:31.185Z,76.70
2019-05-20T17:26:00.978Z,58.50
2019-05-20T17:28:30.693Z,56.47
2019-05-20T17:31:00.660Z,59.23
2019-05-20T17:33:30.320Z,58.00
2019-05-20T17:36:00.221Z,67.27
2019-05-20T17:38:30.472Z,70.20
2019-05-20T17:41:01.311Z,80.63
2019-05-20T17:43:31.614Z,97.53
2019-05-20T17:46:02.194Z,101.73
2019-05-20T17:48:32.382Z,110.13
2019-05-20T17:51:02.394Z,127.10
2019-05-20T17:53:32.041Z,117.23
2019-05-20T17:56:02.186Z,111.47
2019-05-20T17:58:31.968Z,107.20
2019-05-20T18:01:14.654Z,87.47
2019-05-20T18:03:35.522Z,83.97
2019-05-20T18:06:06.879Z,77.67
2019-05-20T18:08:38.892Z,75.77
2019-05-20T18:11:08.860Z,62.03
2019-05-20T18:13:38.456Z,70.13
2019-05-20T18:16:08.467Z,69.77
2019-05-20T18:18:38.352Z,79.13
2019-05-20T18:21:08.185Z,80.83
2019-05-20T18:23:38.072Z,73.30
2019-05-20T18:26:08.174Z,82.63
2019-05-20T18:28:38.166Z,80.87
2019-05-20T18:31:08.054Z,79.83
2019-05-20T18:33:39.435Z,87.03
2019-05-20T18:36:09.809Z,82.33
2019-05-20T18:38:39.585Z,87.07
2019-05-20T18:41:09.383Z,84.77
2019-05-20T18:43:39.384Z,91.10
2019-05-20T18:46:09.198Z,85.23
2019-05-20T18:48:39.298Z,95.67
2019-05-20T18:51:09.363Z,88.70
2019-05-20T18:53:39.141Z,73.27
2019-05-20T18:56:08.925Z,75.50
2019-05-20T18:58:38.711Z,72.27
2019-05-20T19:01:08.837Z,81.33
2019-05-20T19:03:38.915Z,71.53
2019-05-20T19:06:10.384Z,71.93
2019-05-20T19:08:40.186Z,71.97
2019-05-20T19:11:11.280Z,73.30
2019-05-20T19:13:41.316Z,72.40
2019-05-20T19:16:11.825Z,76.63
2019-05-20T19:18:41.482Z,71.07
2019-05-20T19:21:11.439Z,72.07
2019-05-20T19:23:41.561Z,69.03
2019-05-20T19:26:23.773Z,70.13
2019-05-20T19:28:43.514Z,66.30
2019-05-20T19:31:13.470Z,71.47
2019-05-20T19:33:43.374Z,70.13
2019-05-20T19:36:14.928Z,64.53
2019-05-20T19:38:44.647Z,66.87
2019-05-20T19:41:14.582Z,66.30
2019-05-20T19:43:44.983Z,67.50
2019-05-20T19:46:14.837Z,69.13
2019-05-20T19:48:44.611Z,68.13
2019-05-20T19:51:16.117Z,62.60
2019-05-20T19:53:46.141Z,61.17
2019-05-20T19:56:16.155Z,67.73
2019-05-20T19:58:46.229Z,61.70
2019-05-20T20:01:16.459Z,57.60
2019-05-20T20:03:46.680Z,59.37
2019-05-20T20:06:16.750Z,60.27
2019-05-20T20:08:46.636Z,56.27
2019-05-20T20:11:16.645Z,55.33
2019-05-20T20:13:46.767Z,59.57
2019-05-20T20:16:18.428Z,53.90
2019-05-20T20:18:48.401Z,57.27
2019-05-20T20:21:18.435Z,56.53
2019-05-20T20:23:49.771Z,58.63
2019-05-20T20:26:21.448Z,57.87
2019-05-20T20:28:52.603Z,50.13
2019-05-20T20:31:22.332Z,53.77
2019-05-20T20:33:59.692Z,50.97
2019-05-20T20:36:30.924Z,48.20
2019-05-20T20:39:02.397Z,49.03
2019-05-20T20:41:33.365Z,51.30
2019-05-20T20:44:04.788Z,50.20
2019-05-20T20:46:34.569Z,51.57
2019-05-20T20:49:05.104Z,46.90
2019-05-20T20:51:34.946Z,47.63
2019-05-20T20:54:04.779Z,45.60
2019-05-20T20:56:34.811Z,43.63
2019-05-20T20:59:04.592Z,44.37
2019-05-20T21:01:34.245Z,42.40
2019-05-20T21:04:05.335Z,43.77
2019-05-20T21:06:42.407Z,45.47
2019-05-20T21:09:13.426Z,40.90
2019-05-20T21:11:43.360Z,44.70
2019-05-20T21:14:13.732Z,40.63
2019-05-20T21:16:43.344Z,41.30
2019-05-20T21:19:13.395Z,40.83
2019-05-20T21:21:43.216Z,38.53
2019-05-20T21:24:12.922Z,38.77
2019-05-20T21:26:42.860Z,38.00
2019-05-20T21:29:13.996Z,38.13
2019-05-20T21:31:43.855Z,38.27
2019-05-20T21:34:13.568Z,41.20
2019-05-20T21:36:47.549Z,39.63
2019-05-20T21:39:16.468Z,39.93
2019-05-20T21:41:46.189Z,40.00
2019-05-20T21:44:15.990Z,38.13
2019-05-20T21:47:09.982Z,43.20
2019-05-20T21:49:39.787Z,43.80
2019-05-20T21:52:09.456Z,43.70
2019-05-20T21:54:39.501Z,40.93
2019-05-20T21:57:09.259Z,42.60
2019-05-20T21:59:38.986Z,45.10
2019-05-20T22:02:10.125Z,49.27
2019-05-20T22:04:39.937Z,41.67
2019-05-20T22:07:11.095Z,46.83
2019-05-20T22:09:40.825Z,43.33
2019-05-20T22:12:10.549Z,43.07
2019-05-20T22:14:40.230Z,39.53
2019-05-20T22:17:10.891Z,47.50
2019-05-20T22:19:40.569Z,42.90
2019-05-20T22:22:19.199Z,46.07
2019-05-20T22:24:48.915Z,47.23
2019-05-20T22:27:18.513Z,46.03
2019-05-20T22:29:49.209Z,49.87
2019-05-20T22:32:18.880Z,52.10
2019-05-20T22:34:53.694Z,61.63
2019-05-20T22:37:19.943Z,51.37
2019-05-20T22:39:50.301Z,54.87
2019-05-20T22:42:20.044Z,56.03
2019-05-20T22:44:49.917Z,59.13
2019-05-20T22:47:21.132Z,59.00
2019-05-20T22:49:50.921Z,58.53
2019-05-20T22:52:20.568Z,57.27
2019-05-20T22:54:50.229Z,57.70
2019-05-20T22:57:20.236Z,62.97
2019-05-20T22:59:52.181Z,64.73
2019-05-20T23:02:22.229Z,65.23
2019-05-20T23:04:51.921Z,65.67
2019-05-20T23:07:21.685Z,65.27
2019-05-20T23:09:51.413Z,72.27
2019-05-20T23:12:21.098Z,66.73
2019-05-20T23:14:50.757Z,70.07
2019-05-20T23:17:20.691Z,72.97
2019-05-20T23:19:50.278Z,72.73
2019-05-20T23:22:20.009Z,67.23
2019-05-20T23:24:49.592Z,65.73
2019-05-20T23:27:19.399Z,66.83
2019-05-20T23:29:49.035Z,75.87
2019-05-20T23:32:18.828Z,67.50
2019-05-20T23:34:49.406Z,64.00
2019-05-20T23:37:19.164Z,62.90
2019-05-20T23:39:50.578Z,64.30
2019-05-20T23:42:20.320Z,61.00
2019-05-20T23:44:50.126Z,61.40
2019-05-20T23:47:19.901Z,58.37
2019-05-20T23:49:49.617Z,53.90
2019-05-20T23:52:19.358Z,53.53
2019-05-20T23:54:49.113Z,51.30
2019-05-20T23:57:19.034Z,50.20
2019-05-20T23:59:48.644Z,47.37
